• Join FlightAware (Why Join?)
  • Login
  • US Flag 
04:43AM EDT


 

Airport Tracker/Info


-or-


 

Live Flight TrackerFlight Track Log ✈ SWA771 ✈ 06-Jul-2013 ✈ KSAN - KPHX

Flight Track Log - Related Links

Times and Time Zones

All times are in EDT time to prevent confusion due to time zone crossing. See the SWA771 flight status page for this flight to view local times or setup timezone preferences in your user account.

Time Position Orientation Groundspeed Altitude Reporting Facility
EDT Latitude Longitude Course Direction KTS MPH feet Rate Location/Type
11:38PM 32.7444 -117.2328 90° East 183 211 1,800  Level Los Angeles Center
11:39PM 32.7553 -117.3047 280° West 210 242 4,300 2,400 Climbing Los Angeles Center
11:40PM 32.6942 -117.3186 191° South 247 284 6,800 2,580 Climbing Los Angeles Center
11:41PM 32.6625 -117.2161 110° East 273 314 9,600 2,220 Climbing Los Angeles Center
11:42PM 32.6392 -117.1192 106° East 297 342 11,400 1,860 Climbing Los Angeles Center
11:43PM 32.6167 -116.7683 90° East  Level FlightAware Approximate
11:43PM 32.6175 -117.0097 103° East 331 381 13,500  Level Los Angeles Center
11:44PM 32.6183 -116.8925 89° East 358 412 15,500 1,920 Climbing Los Angeles Center
11:45PM 32.6314 -116.7700 83° East 371 427 17,500 1,980 Climbing Los Angeles Center
11:46PM 32.6433 -116.6453 83° East 377 434 19,600 1,800 Climbing Los Angeles Center
11:47PM 32.6561 -116.5161 83° East 393 452 21,300 1,500 Climbing Los Angeles Center
11:49PM 32.6836 -116.2172 84° East 427 491 24,300 1,380 Climbing Los Angeles Center
11:50PM 32.6969 -116.0750 84° East 436 502 25,700 1,320 Climbing Los Angeles Center
11:51PM 32.7103 -115.9300 84° East 443 510 27,100 1,320 Climbing Los Angeles Center
11:52PM 32.7239 -115.7847 84° East 444 511 28,500 1,260 Climbing Los Angeles Center
11:53PM 32.7369 -115.6389 84° East 445 512 29,800 1,200 Climbing Los Angeles Center
11:54PM 32.7508 -115.4636 85° East 446 513 31,000 1,080 Climbing Los Angeles Center
11:55PM 32.7536 -115.3147 89° East 451 519 32,000 960 Climbing Los Angeles Center
11:56PM 32.7603 -115.1636 87° East 458 527 33,000 1,020 Climbing Los Angeles Center
11:57PM 32.7619 -115.0150 89° East 453 521 34,100 960 Climbing Los Angeles Center
11:58PM 32.7650 -114.8694 89° East 444 511 35,000 420 Climbing Los Angeles Center
11:59PM 32.7681 -114.7219 89° East 449 517 35,000 -180 Level Los Angeles Center
12:00AM 32.7697 -114.5719 89° East 455 524 34,700 -1,740 Descending Los Angeles Center
12:01AM 32.7728 -114.4217 89° East 458 527 31,500 -3,180 Descending Los Angeles Center
12:02AM 32.7750 -114.2731 89° East 452 520 28,300 -3,000 Descending Los Angeles Center
12:03AM 32.7767 -114.1014 89° East 435 501 25,400 -1,680 Descending Los Angeles Center
12:04AM 32.8017 -113.9694 77° East 433 498 25,000 -240 Descending Los Angeles Center
12:05AM 32.8533 -113.8436 64° Northeast 428 493 25,000  Level Los Angeles Center
12:06AM 32.9083 -113.7119 64° Northeast 440 506 25,100  Climbing Los Angeles Center
12:07AM 32.9669 -113.5739 63° Northeast 469 540 25,000 -60 Descending Los Angeles Center
12:08AM 33.0311 -113.4189 64° Northeast 459 528 25,000 -420 Level Albuquerque Center
12:09AM 33.0867 -113.2878 63° Northeast 449 517 24,200 -1,860 Descending Albuquerque Center
12:11AM 33.1667 -113.0833 65° Northeast 446 513 20,300 -2,640 Descending Phoenix TRACON
12:11AM 33.1969 -113.0244 58° Northeast 444 511 18,900 -2,640 Descending Albuquerque Center
12:12AM 33.2467 -112.9022 64° Northeast 431 496 16,300 -1,140 Descending Albuquerque Center
12:14AM 33.2833 -112.7333 75° East 330 380 16,000 -480 Descending Phoenix TRACON
12:15AM 33.2833 -112.6167 90° East 334 384 15,200 -1,440 Descending Phoenix TRACON
12:16AM 33.2833 -112.5000 90° East 330 380 13,100 -1,800 Descending Phoenix TRACON
12:17AM 33.2833 -112.3833 90° East 315 362 11,500 -1,080 Descending Phoenix TRACON
12:18AM 33.3000 -112.2833 79° East 297 342 11,000 -840 Descending Phoenix TRACON
12:19AM 33.3000 -112.2000 90° East 290 334 9,900 -1,020 Descending Phoenix TRACON
12:20AM 33.3167 -112.1000 79° East 270 311 9,000 -900 Descending Phoenix TRACON
12:21AM 33.3333 -112.0167 77° East 248 285 8,200 -1,080 Descending Phoenix TRACON
12:22AM 33.3500 -111.9333 77° East 251 289 6,900 -1,200 Descending Phoenix TRACON
12:23AM 33.3500 -111.8667 90° East 241 277 5,800 -1,260 Descending Phoenix TRACON
12:24AM 33.3833 -111.8167 51° Northeast 231 266 4,400 -1,260 Descending Phoenix TRACON
12:25AM 33.4167 -111.8667 309° West 221 254 3,200 -960 Descending Phoenix TRACON
12:26AM 33.4333 -111.9167 292° West 185 213 2,500 -900 Descending Phoenix TRACON
12:27AM 33.4333 -111.9667 270° West 148 170 1,500 -1,020 Descending Phoenix TRACON